createdAt,value
2023-05-14T00:02:16.683Z,4.50
2023-05-14T00:04:45.207Z,5.78
2023-05-14T00:07:13.742Z,7.25
2023-05-14T00:09:42.436Z,6.63
2023-05-14T00:12:11.088Z,5.88
2023-05-14T00:14:40.000Z,2.85
2023-05-14T00:17:09.861Z,3.78
2023-05-14T00:19:41.899Z,5.93
2023-05-14T00:22:10.451Z,5.22
2023-05-14T00:24:39.213Z,6.65
2023-05-14T00:27:07.827Z,4.85
2023-05-14T00:29:36.255Z,4.10
2023-05-14T00:32:05.196Z,5.00
2023-05-14T00:34:35.027Z,4.72
2023-05-14T00:37:03.574Z,7.50
2023-05-14T00:39:32.008Z,3.17
2023-05-14T00:42:00.535Z,6.28
2023-05-14T00:44:29.031Z,4.43
2023-05-14T00:46:57.603Z,3.75
2023-05-14T00:49:26.537Z,5.05
2023-05-14T00:51:59.188Z,3.80
2023-05-14T00:54:29.524Z,4.45
2023-05-14T00:56:58.575Z,5.45
2023-05-14T01:01:55.889Z,3.25
2023-05-14T01:04:24.555Z,3.17
2023-05-14T01:09:30.976Z,8.60
2023-05-14T01:12:04.982Z,4.97
2023-05-14T01:14:39.565Z,4.93
2023-05-14T01:17:12.231Z,4.97
2023-05-14T01:19:42.906Z,5.40
2023-05-14T01:22:13.425Z,6.25
2023-05-14T01:24:42.288Z,3.72
2023-05-14T01:27:18.691Z,4.80
2023-05-14T01:30:00.493Z,4.85
2023-05-14T01:32:31.701Z,5.47
2023-05-14T01:35:02.617Z,6.22
2023-05-14T01:37:34.510Z,5.47
2023-05-14T01:40:03.957Z,4.40
2023-05-14T01:42:34.379Z,3.72
2023-05-14T01:45:03.704Z,4.78
2023-05-14T01:47:33.731Z,4.00
2023-05-14T01:50:02.544Z,4.35
2023-05-14T01:52:34.142Z,6.15
2023-05-14T01:55:02.909Z,5.57
2023-05-14T01:57:33.031Z,4.43
2023-05-14T02:00:01.512Z,4.45
2023-05-14T02:02:34.802Z,5.47
2023-05-14T02:05:04.948Z,6.82
2023-05-14T02:07:36.857Z,4.53
2023-05-14T02:10:06.259Z,6.72
2023-05-14T02:12:35.176Z,5.60
2023-05-14T02:15:04.192Z,3.65
2023-05-14T02:17:35.701Z,4.50
2023-05-14T02:20:05.002Z,5.45
2023-05-14T02:22:42.347Z,6.03
2023-05-14T02:25:11.646Z,4.05
2023-05-14T02:27:40.579Z,4.18
2023-05-14T02:30:10.463Z,4.70
2023-05-14T02:32:40.617Z,5.65
2023-05-14T02:35:10.229Z,3.88
2023-05-14T02:37:40.569Z,4.65
2023-05-14T02:40:10.173Z,3.97
2023-05-14T02:42:38.677Z,6.30
2023-05-14T02:45:08.387Z,2.92
2023-05-14T02:47:38.249Z,6.43
2023-05-14T02:50:08.151Z,4.50
2023-05-14T02:52:36.984Z,4.70
2023-05-14T02:55:07.953Z,7.50
2023-05-14T02:57:39.486Z,3.85
2023-05-14T03:00:09.253Z,7.93
2023-05-14T03:02:38.757Z,5.95
2023-05-14T03:05:08.354Z,5.53
2023-05-14T03:10:07.610Z,3.65
2023-05-14T03:12:36.182Z,4.90
2023-05-14T03:15:04.859Z,5.03
2023-05-14T03:20:01.708Z,6.93
2023-05-14T03:22:31.817Z,5.38
2023-05-14T03:25:00.395Z,7.72
2023-05-14T03:27:30.315Z,3.45
2023-05-14T03:29:58.773Z,5.05
2023-05-14T03:32:27.395Z,5.20
2023-05-14T03:34:55.873Z,6.13
2023-05-14T03:37:24.791Z,4.65
2023-05-14T03:42:21.301Z,8.18
2023-05-14T03:44:51.177Z,5.55
2023-05-14T03:47:19.776Z,7.93
2023-05-14T03:49:48.479Z,3.88
2023-05-14T03:52:17.396Z,5.78
2023-05-14T03:54:46.449Z,4.82
2023-05-14T03:57:16.771Z,4.20
2023-05-14T03:59:45.262Z,6.32
2023-05-14T04:02:16.211Z,7.45
2023-05-14T04:04:44.782Z,4.32
2023-05-14T04:07:13.304Z,5.07
2023-05-14T04:09:41.826Z,3.13
2023-05-14T04:12:10.841Z,5.82
2023-05-14T04:14:39.274Z,5.05
2023-05-14T04:17:07.755Z,4.50
2023-05-14T04:19:37.620Z,2.78
2023-05-14T04:22:06.338Z,2.72
2023-05-14T04:24:34.793Z,4.47
2023-05-14T04:27:03.236Z,4.45
2023-05-14T04:29:32.167Z,6.07
2023-05-14T04:32:01.066Z,3.35
2023-05-14T04:36:59.066Z,3.60
2023-05-14T04:39:27.584Z,5.80
2023-05-14T04:41:56.008Z,2.85
2023-05-14T04:44:24.483Z,7.32
2023-05-14T04:46:53.167Z,3.60
2023-05-14T04:49:22.087Z,4.28
2023-05-14T04:54:20.136Z,7.35
2023-05-14T04:56:48.904Z,4.60
2023-05-14T04:59:17.473Z,2.92
2023-05-14T05:01:46.457Z,2.67
2023-05-14T05:04:15.109Z,3.63
2023-05-14T05:06:43.640Z,3.80
2023-05-14T05:09:12.474Z,2.20
2023-05-14T05:14:10.630Z,3.85
2023-05-14T05:16:39.138Z,1.95
2023-05-14T05:19:07.723Z,2.78
2023-05-14T05:21:36.528Z,2.50
2023-05-14T05:24:05.322Z,4.78
2023-05-14T05:26:37.000Z,3.25
2023-05-14T05:29:07.230Z,4.53
2023-05-14T05:31:36.813Z,4.45
2023-05-14T05:34:05.562Z,1.83
2023-05-14T05:39:02.423Z,2.92
2023-05-14T05:41:31.392Z,4.13
2023-05-14T05:43:59.948Z,2.13
2023-05-14T05:46:29.906Z,5.97
2023-05-14T05:48:58.713Z,4.88
2023-05-14T05:51:27.416Z,4.15
2023-05-14T05:56:24.408Z,4.28
2023-05-14T05:58:53.059Z,2.63
2023-05-14T06:01:21.656Z,5.35
2023-05-14T06:03:51.607Z,2.80
2023-05-14T06:06:20.196Z,2.17
2023-05-14T06:08:48.851Z,1.75
2023-05-14T06:11:17.416Z,1.02
2023-05-14T06:13:45.896Z,1.95
2023-05-14T06:16:14.535Z,2.55
2023-05-14T06:18:43.171Z,1.55
2023-05-14T06:21:13.098Z,2.28
2023-05-14T06:23:41.840Z,3.53
2023-05-14T06:26:10.374Z,0.80
2023-05-14T06:28:38.857Z,1.90
2023-05-14T06:31:07.444Z,2.17
2023-05-14T06:33:35.942Z,1.67
2023-05-14T06:36:06.752Z,2.08
2023-05-14T06:38:36.777Z,4.40
2023-05-14T06:41:05.365Z,3.15
2023-05-14T06:43:33.828Z,3.63
2023-05-14T06:46:05.088Z,1.60
2023-05-14T06:48:33.633Z,2.00
2023-05-14T06:51:04.107Z,3.25
2023-05-14T06:53:32.758Z,3.40
2023-05-14T06:56:02.636Z,1.45
2023-05-14T06:58:33.481Z,1.70
2023-05-14T07:01:02.156Z,1.30
2023-05-14T07:03:30.669Z,0.68
2023-05-14T07:05:59.152Z,1.13
2023-05-14T07:08:27.726Z,0.80
2023-05-14T07:10:57.469Z,1.10
2023-05-14T07:13:28.880Z,1.20
2023-05-14T07:15:57.559Z,1.70
2023-05-14T07:18:26.203Z,1.02
2023-05-14T07:20:54.638Z,3.50
2023-05-14T07:23:23.203Z,1.58
2023-05-14T07:25:51.731Z,2.00
2023-05-14T07:28:20.257Z,1.83
2023-05-14T07:30:50.091Z,2.10
2023-05-14T07:33:18.586Z,1.60
2023-05-14T07:35:47.114Z,3.45
2023-05-14T07:38:15.967Z,3.97
2023-05-14T07:40:44.604Z,0.70
2023-05-14T07:43:13.038Z,1.10
2023-05-14T07:45:41.564Z,2.05
2023-05-14T07:48:11.937Z,1.35
2023-05-14T07:50:40.616Z,2.72
2023-05-14T07:53:09.221Z,3.63
2023-05-14T07:55:38.221Z,2.58
2023-05-14T07:58:06.756Z,1.40
2023-05-14T08:00:35.254Z,3.50
2023-05-14T08:03:03.898Z,2.67
2023-05-14T08:05:34.240Z,3.85
2023-05-14T08:08:03.298Z,2.53
2023-05-14T08:10:32.251Z,1.75
2023-05-14T08:13:01.763Z,4.20
2023-05-14T08:15:31.914Z,0.90
2023-05-14T08:18:03.746Z,2.17
2023-05-14T08:20:33.880Z,2.85
2023-05-14T08:23:02.650Z,1.90
2023-05-14T08:25:31.223Z,3.40
2023-05-14T08:27:59.990Z,3.00
2023-05-14T08:30:28.670Z,1.42
2023-05-14T08:32:57.516Z,2.75
2023-05-14T08:35:26.278Z,3.10
2023-05-14T08:37:57.104Z,1.80
2023-05-14T08:40:25.855Z,3.75
2023-05-14T08:42:57.656Z,0.93
2023-05-14T08:45:34.371Z,3.08
2023-05-14T08:48:09.705Z,1.45
2023-05-14T08:50:38.640Z,3.70
2023-05-14T08:55:38.498Z,1.73
2023-05-14T08:58:09.383Z,1.50
2023-05-14T09:00:40.265Z,3.22
2023-05-14T09:06:26.246Z,0.55
2023-05-14T09:08:57.413Z,3.08
2023-05-14T09:11:26.158Z,5.03
2023-05-14T09:13:54.660Z,2.05
2023-05-14T09:16:26.217Z,1.67
2023-05-14T09:18:56.396Z,1.60
2023-05-14T09:21:25.290Z,1.65
2023-05-14T09:24:00.539Z,8.57
2023-05-14T09:26:32.705Z,2.10
2023-05-14T09:29:02.159Z,2.10
2023-05-14T09:31:32.120Z,0.85
2023-05-14T09:34:02.168Z,1.17
2023-05-14T09:36:31.734Z,5.00
2023-05-14T09:39:04.866Z,1.35
2023-05-14T09:41:33.521Z,4.90
2023-05-14T09:44:03.025Z,3.90
2023-05-14T09:46:32.808Z,4.13
2023-05-14T09:49:01.815Z,2.67
2023-05-14T09:51:32.806Z,4.25
2023-05-14T09:54:04.429Z,5.07
2023-05-14T09:56:33.811Z,2.60
2023-05-14T09:59:02.373Z,6.28
2023-05-14T10:01:33.064Z,1.05
2023-05-14T10:04:04.081Z,1.17
2023-05-14T10:06:37.691Z,1.48
2023-05-14T10:09:14.261Z,1.13
2023-05-14T10:11:45.740Z,4.00
2023-05-14T10:14:18.735Z,2.08
2023-05-14T10:16:52.028Z,2.25
2023-05-14T10:19:24.669Z,4.32
2023-05-14T10:21:57.394Z,2.83
2023-05-14T10:24:29.469Z,4.60
2023-05-14T10:27:01.188Z,3.75
2023-05-14T10:29:37.379Z,1.45
2023-05-14T10:32:07.325Z,1.85
2023-05-14T10:34:42.264Z,3.58
2023-05-14T10:37:13.015Z,1.60
2023-05-14T10:39:44.975Z,3.75
2023-05-14T10:42:14.857Z,2.58
2023-05-14T10:44:50.040Z,1.00
2023-05-14T10:47:19.287Z,4.63
2023-05-14T10:49:50.265Z,1.70
2023-05-14T10:52:20.940Z,1.50
2023-05-14T10:54:55.621Z,2.13
2023-05-14T10:57:26.380Z,3.47
2023-05-14T10:59:58.968Z,4.18
2023-05-14T11:02:29.055Z,1.17
2023-05-14T11:04:59.744Z,2.65
2023-05-14T11:07:32.492Z,3.38
2023-05-14T11:10:04.450Z,1.15
2023-05-14T11:12:33.773Z,3.88
2023-05-14T11:15:04.078Z,2.22
2023-05-14T11:17:34.398Z,2.92
2023-05-14T11:22:32.753Z,1.85
2023-05-14T11:25:02.817Z,1.38
2023-05-14T11:27:35.609Z,3.55
2023-05-14T11:30:04.725Z,5.53
2023-05-14T11:32:36.677Z,2.88
2023-05-14T11:35:09.431Z,2.05
2023-05-14T11:37:37.993Z,1.55
2023-05-14T11:40:11.112Z,1.27
2023-05-14T11:42:40.403Z,2.03
2023-05-14T11:45:15.590Z,5.60
2023-05-14T11:47:44.356Z,2.42
2023-05-14T11:52:42.222Z,2.30
2023-05-14T11:55:16.088Z,7.97
2023-05-14T11:57:44.992Z,1.58
2023-05-14T12:00:22.217Z,3.70
2023-05-14T12:02:51.332Z,2.30
2023-05-14T12:05:20.528Z,1.48
2023-05-14T12:07:52.161Z,2.97
2023-05-14T12:10:22.266Z,2.63
2023-05-14T12:12:51.019Z,4.63
2023-05-14T12:17:52.058Z,2.88
2023-05-14T12:20:20.994Z,2.38
2023-05-14T12:25:17.731Z,1.83
2023-05-14T12:27:49.619Z,6.20
2023-05-14T12:30:21.918Z,3.08
2023-05-14T12:32:53.054Z,1.75
2023-05-14T12:35:26.485Z,3.83
2023-05-14T12:37:55.776Z,2.80
2023-05-14T12:40:25.718Z,2.53
2023-05-14T12:42:56.864Z,2.72
2023-05-14T12:45:26.050Z,2.92
2023-05-14T12:47:54.613Z,2.75
2023-05-14T12:50:23.466Z,2.55
2023-05-14T12:52:52.114Z,4.28
2023-05-14T12:55:20.661Z,1.90
2023-05-14T12:57:49.389Z,1.90
2023-05-14T13:00:19.944Z,2.30
2023-05-14T13:02:48.680Z,2.38
2023-05-14T13:07:46.923Z,1.08
2023-05-14T13:10:15.490Z,1.33
2023-05-14T13:12:43.958Z,2.75
2023-05-14T13:15:13.128Z,2.30
2023-05-14T13:17:43.033Z,1.85
2023-05-14T13:20:12.277Z,3.47
2023-05-14T13:22:41.424Z,2.15
2023-05-14T13:25:10.925Z,1.98
2023-05-14T13:27:39.981Z,1.73
2023-05-14T13:30:09.953Z,2.22
2023-05-14T13:32:39.641Z,2.20
2023-05-14T13:35:12.177Z,2.33
2023-05-14T13:37:41.119Z,2.13
2023-05-14T13:40:11.114Z,2.65
2023-05-14T13:42:41.103Z,3.83
2023-05-14T13:45:10.247Z,5.18
2023-05-14T13:47:41.358Z,2.47
2023-05-14T13:50:12.281Z,2.35
2023-05-14T13:52:41.078Z,5.15
2023-05-14T13:55:11.471Z,3.15
2023-05-14T13:57:43.432Z,3.25
2023-05-14T14:00:13.689Z,3.50
2023-05-14T14:02:42.781Z,2.67
2023-05-14T14:05:13.025Z,5.40
2023-05-14T14:07:41.970Z,3.47
2023-05-14T14:10:11.818Z,2.15
2023-05-14T14:12:40.639Z,1.83
2023-05-14T14:20:09.827Z,4.22
2023-05-14T14:22:41.708Z,1.75
2023-05-14T14:25:12.290Z,3.17
2023-05-14T14:27:43.902Z,2.13
2023-05-14T14:30:15.809Z,3.15
2023-05-14T14:32:45.712Z,2.92
2023-05-14T14:35:15.667Z,3.63
2023-05-14T14:37:49.414Z,1.80
2023-05-14T14:40:18.755Z,2.63
2023-05-14T14:42:48.781Z,4.05
2023-05-14T14:45:20.026Z,4.80
2023-05-14T14:47:50.343Z,2.15
2023-05-14T14:50:18.999Z,2.22
2023-05-14T14:52:49.027Z,2.95
2023-05-14T14:55:18.569Z,2.50
2023-05-14T14:57:47.192Z,2.55
2023-05-14T15:00:17.230Z,2.63
2023-05-14T15:02:46.083Z,5.07
2023-05-14T15:07:46.315Z,2.60
2023-05-14T15:10:16.403Z,4.63
2023-05-14T15:12:45.311Z,3.17
2023-05-14T15:15:13.809Z,3.20
2023-05-14T15:17:42.561Z,2.92
2023-05-14T15:20:12.261Z,3.00
2023-05-14T15:22:41.564Z,7.03
2023-05-14T15:25:12.829Z,6.43
2023-05-14T15:27:42.821Z,3.50
2023-05-14T15:30:12.474Z,2.88
2023-05-14T15:32:41.506Z,3.13
2023-05-14T15:35:10.666Z,2.75
2023-05-14T15:37:41.217Z,2.05
2023-05-14T15:40:11.145Z,3.22
2023-05-14T15:42:46.342Z,1.92
2023-05-14T15:45:19.329Z,3.67
2023-05-14T15:47:47.996Z,3.33
2023-05-14T15:50:16.630Z,2.30
2023-05-14T15:52:45.301Z,2.70
2023-05-14T15:55:13.797Z,2.22
2023-05-14T15:57:42.314Z,3.05
2023-05-14T16:00:11.989Z,6.43
2023-05-14T16:02:42.626Z,4.15
2023-05-14T16:05:11.601Z,2.75
2023-05-14T16:07:40.467Z,3.58
2023-05-14T16:12:39.461Z,6.95
2023-05-14T16:15:09.372Z,7.03
2023-05-14T16:17:41.916Z,7.05
2023-05-14T16:20:11.650Z,11.23
2023-05-14T16:22:40.393Z,10.30
2023-05-14T16:25:09.662Z,3.85
2023-05-14T16:27:38.153Z,4.22
2023-05-14T16:30:08.363Z,3.97
2023-05-14T16:32:42.110Z,1.98
2023-05-14T16:35:11.668Z,8.70
2023-05-14T16:37:40.863Z,5.03
2023-05-14T16:40:11.831Z,9.35
2023-05-14T16:42:40.629Z,6.20
2023-05-14T16:45:10.448Z,4.03
2023-05-14T16:47:41.351Z,3.95
2023-05-14T16:50:12.133Z,6.93
2023-05-14T16:52:42.297Z,5.03
2023-05-14T16:55:11.208Z,4.00
2023-05-14T17:00:10.026Z,3.70
2023-05-14T17:02:39.205Z,4.43
2023-05-14T17:05:09.020Z,4.32
2023-05-14T17:07:40.265Z,11.30
2023-05-14T17:10:09.926Z,6.05
2023-05-14T17:12:38.488Z,3.83
2023-05-14T17:15:08.540Z,5.82
2023-05-14T17:17:37.302Z,6.32
2023-05-14T17:20:06.939Z,4.18
2023-05-14T17:22:35.608Z,1.65
2023-05-14T17:25:06.314Z,4.55
2023-05-14T17:27:36.282Z,2.97
2023-05-14T17:30:05.361Z,3.00
2023-05-14T17:32:37.490Z,1.80
2023-05-14T17:40:08.740Z,2.17
2023-05-14T17:42:37.434Z,3.30
2023-05-14T17:45:06.907Z,2.63
2023-05-14T17:47:36.221Z,2.92
2023-05-14T17:50:06.356Z,2.45
2023-05-14T17:52:41.239Z,2.90
2023-05-14T17:55:11.763Z,5.82
2023-05-14T17:57:41.823Z,2.25
2023-05-14T18:00:11.815Z,2.42
2023-05-14T18:02:40.834Z,2.17
2023-05-14T18:05:10.200Z,4.00
2023-05-14T18:07:38.769Z,2.08
2023-05-14T18:10:08.505Z,3.47
2023-05-14T18:12:38.680Z,4.72
2023-05-14T18:15:08.560Z,2.92
2023-05-14T18:17:38.410Z,4.10
2023-05-14T18:20:08.645Z,4.50
2023-05-14T18:22:38.020Z,3.97
2023-05-14T18:25:10.821Z,4.05
2023-05-14T18:27:44.494Z,5.97
2023-05-14T18:30:14.973Z,3.75
2023-05-14T18:32:45.074Z,4.28
2023-05-14T18:35:14.384Z,4.93
2023-05-14T18:37:43.077Z,4.03
2023-05-14T18:40:16.894Z,3.63
2023-05-14T18:42:48.512Z,3.88
2023-05-14T18:45:23.048Z,4.43
2023-05-14T18:47:52.606Z,3.15
2023-05-14T18:50:25.215Z,3.05
2023-05-14T18:52:53.931Z,4.38
2023-05-14T18:55:23.168Z,3.55
2023-05-14T18:57:53.298Z,8.18
2023-05-14T19:00:22.611Z,6.00
2023-05-14T19:02:51.564Z,7.05
2023-05-14T19:05:20.529Z,3.60
2023-05-14T19:07:49.610Z,4.88
2023-05-14T19:12:50.492Z,4.53
2023-05-14T19:15:20.586Z,5.93
2023-05-14T19:17:49.473Z,5.90
2023-05-14T19:22:46.720Z,3.92
2023-05-14T19:25:15.245Z,3.15
2023-05-14T19:27:44.939Z,4.32
2023-05-14T19:30:21.101Z,2.72
2023-05-14T19:32:49.803Z,3.63
2023-05-14T19:35:18.651Z,3.53
2023-05-14T19:37:47.786Z,5.00
2023-05-14T19:40:16.320Z,4.30
2023-05-14T19:42:44.791Z,4.60
2023-05-14T19:45:13.921Z,4.15
2023-05-14T19:47:44.118Z,3.45
2023-05-14T19:50:12.785Z,4.45
2023-05-14T19:52:41.403Z,3.20
2023-05-14T19:55:11.762Z,3.53
2023-05-14T19:57:40.388Z,4.68
2023-05-14T20:00:10.681Z,3.45
2023-05-14T20:02:40.811Z,4.35
2023-05-14T20:05:11.652Z,3.08
2023-05-14T20:07:40.593Z,3.90
2023-05-14T20:10:10.416Z,3.00
2023-05-14T20:12:39.068Z,5.03
2023-05-14T20:17:36.387Z,3.28
2023-05-14T20:20:07.098Z,5.43
2023-05-14T20:22:38.359Z,4.13
2023-05-14T20:25:07.584Z,5.72
2023-05-14T20:27:36.074Z,4.88
2023-05-14T20:30:04.773Z,3.47
2023-05-14T20:32:33.845Z,4.22
2023-05-14T20:35:03.142Z,3.95
2023-05-14T20:37:33.825Z,4.03
2023-05-14T20:40:05.219Z,3.92
2023-05-14T20:42:35.296Z,2.90
2023-05-14T20:45:03.893Z,4.10
2023-05-14T20:47:34.267Z,5.88
2023-05-14T20:50:03.280Z,4.75
2023-05-14T20:52:33.142Z,6.57
2023-05-14T20:55:07.739Z,4.00
2023-05-14T20:57:36.524Z,8.13
2023-05-14T21:00:08.432Z,5.80
2023-05-14T21:02:41.077Z,3.95
2023-05-14T21:05:10.657Z,4.90
2023-05-14T21:10:11.182Z,6.15
2023-05-14T21:12:40.636Z,4.93
2023-05-14T21:15:44.864Z,6.38
2023-05-14T21:18:42.272Z,4.35
2023-05-14T21:21:12.625Z,4.80
2023-05-14T21:23:41.198Z,6.53
2023-05-14T21:26:11.518Z,4.70
2023-05-14T21:28:40.044Z,7.97
2023-05-14T21:31:08.743Z,5.70
2023-05-14T21:33:37.320Z,6.65
2023-05-14T21:36:06.512Z,4.80
2023-05-14T21:38:35.297Z,5.72
2023-05-14T21:41:03.931Z,7.35
2023-05-14T21:43:33.835Z,6.45
2023-05-14T21:46:02.480Z,6.55
2023-05-14T21:48:30.938Z,6.05
2023-05-14T21:50:59.383Z,7.53
2023-05-14T21:53:28.033Z,9.80
2023-05-14T21:55:56.828Z,9.73
2023-05-14T21:58:25.372Z,12.20
2023-05-14T22:00:55.380Z,12.18
2023-05-14T22:03:24.043Z,14.20
2023-05-14T22:05:53.327Z,15.52
2023-05-14T22:08:21.834Z,20.55
2023-05-14T22:10:50.340Z,27.05
2023-05-14T22:13:18.874Z,19.75
2023-05-14T22:15:47.432Z,14.65
2023-05-14T22:18:18.328Z,14.48
2023-05-14T22:20:48.276Z,14.05
2023-05-14T22:23:16.783Z,13.70
2023-05-14T22:25:45.298Z,22.70
2023-05-14T22:28:13.766Z,32.33
2023-05-14T22:30:42.298Z,41.72
2023-05-14T22:33:10.799Z,35.60
2023-05-14T22:35:40.979Z,27.75
2023-05-14T22:38:09.549Z,30.25
2023-05-14T22:40:37.962Z,25.40
2023-05-14T22:43:08.759Z,15.95
2023-05-14T22:45:37.297Z,13.60
2023-05-14T22:48:06.052Z,15.50
2023-05-14T22:53:04.146Z,15.63
2023-05-14T22:55:33.188Z,16.70
2023-05-14T22:58:01.687Z,16.38
2023-05-14T23:00:30.396Z,17.48
2023-05-14T23:05:27.298Z,19.40
2023-05-14T23:07:58.740Z,20.02
2023-05-14T23:10:28.989Z,18.00
2023-05-14T23:12:57.515Z,16.17
2023-05-14T23:15:26.293Z,12.73
2023-05-14T23:17:55.541Z,11.93
2023-05-14T23:20:24.138Z,13.70
2023-05-14T23:22:53.130Z,15.20
2023-05-14T23:25:21.640Z,15.43
2023-05-14T23:27:51.521Z,16.00
2023-05-14T23:30:20.058Z,17.67
2023-05-14T23:32:48.471Z,18.15
2023-05-14T23:35:17.089Z,15.23
2023-05-14T23:37:47.494Z,13.75
2023-05-14T23:40:26.183Z,8.02
2023-05-14T23:42:57.498Z,8.70
2023-05-14T23:45:26.358Z,8.20
2023-05-14T23:47:59.885Z,8.95
2023-05-14T23:50:28.591Z,11.88
2023-05-14T23:52:57.521Z,13.30
2023-05-14T23:55:26.429Z,15.57
2023-05-14T23:57:56.585Z,12.35
